createdAt,value
2023-07-24T00:09:43.320Z,74.8
2023-07-24T00:29:43.387Z,73.9
2023-07-24T00:49:43.289Z,74.6
2023-07-24T01:09:43.273Z,77.0
2023-07-24T01:29:43.239Z,77.7
2023-07-24T01:49:43.245Z,79.6
2023-07-24T02:09:43.115Z,75.7
2023-07-24T02:29:43.201Z,77.5
2023-07-24T02:49:43.116Z,79.2
2023-07-24T03:09:43.052Z,76.8
2023-07-24T03:29:43.037Z,86.0
2023-07-24T03:49:43.036Z,87.4
2023-07-24T04:09:42.999Z,87.5
2023-07-24T04:29:42.969Z,88.2
2023-07-24T04:49:43.042Z,88.9
2023-07-24T05:09:42.952Z,88.9
2023-07-24T05:29:43.000Z,89.4
2023-07-24T05:49:42.910Z,89.0
2023-07-24T06:09:42.874Z,88.5
2023-07-24T06:29:43.030Z,87.8
2023-07-24T06:49:42.879Z,82.9
2023-07-24T07:09:42.744Z,77.0
2023-07-24T07:29:42.785Z,70.3
2023-07-24T07:49:42.698Z,84.6
2023-07-24T08:09:42.732Z,87.7
2023-07-24T08:29:42.733Z,88.0
2023-07-24T08:49:42.918Z,88.3
2023-07-24T09:09:42.630Z,88.2
2023-07-24T09:29:42.607Z,87.1
2023-07-24T09:49:42.590Z,86.7
2023-07-24T10:09:42.574Z,78.3
2023-07-24T10:29:42.470Z,75.0
2023-07-24T10:49:42.467Z,70.7
2023-07-24T11:09:42.511Z,62.6
2023-07-24T11:29:42.423Z,58.5
2023-07-24T11:49:42.485Z,59.6
2023-07-24T12:09:42.320Z,60.9
2023-07-24T12:29:42.293Z,74.6
2023-07-24T12:49:42.320Z,85.7
2023-07-24T13:09:42.670Z,85.1
2023-07-24T13:29:42.286Z,86.0
2023-07-24T13:49:42.151Z,86.9
2023-07-24T14:09:42.151Z,85.5
2023-07-24T14:29:42.249Z,79.3
2023-07-24T14:49:42.132Z,71.0
2023-07-24T15:09:42.186Z,65.2
2023-07-24T15:29:42.025Z,66.6
2023-07-24T15:49:42.103Z,69.8
2023-07-24T16:09:42.030Z,68.1
2023-07-24T16:29:42.000Z,72.0
2023-07-24T16:49:42.011Z,80.3
2023-07-24T17:09:41.880Z,84.3
2023-07-24T17:29:41.873Z,83.8
2023-07-24T17:49:41.864Z,83.9
2023-07-24T18:09:41.860Z,86.2
2023-07-24T18:29:41.831Z,87.0
2023-07-24T18:49:41.814Z,86.6
2023-07-24T19:09:41.807Z,87.4
2023-07-24T19:29:41.739Z,88.6
2023-07-24T19:49:41.670Z,89.4
2023-07-24T20:09:41.657Z,89.3
2023-07-24T20:29:41.639Z,89.8
2023-07-24T20:49:41.683Z,90.0
2023-07-24T21:09:41.762Z,90.0
2023-07-24T21:29:41.613Z,90.0
2023-07-24T21:49:41.763Z,90.0
2023-07-24T22:09:41.573Z,89.4
2023-07-24T22:29:41.460Z,89.2
2023-07-24T22:49:41.544Z,89.0
2023-07-24T23:09:41.414Z,88.6
2023-07-24T23:29:41.409Z,88.4
2023-07-24T23:49:41.387Z,88.0
